Philadelphia, PA - PHL

The City of Brotherly Love

The Philadelphia International Airport is American Airlines' 5th largest hub and serves as another connection gateway to the Northeast, Europe, and some Caribbean destinations. AAG owns more than 70% of the passenger share here making it another key piece to the intricate route network.

PHL Based Pilots: 9   Miles to PHL: 152297
Flights from PHL: 184   Total Hours: 785.45
Routes using PHL: 1025   From PHL: 369.11
Total Miles: 282323   Hours To PHL: 416.34
Miles from PHL: 130026   PHL Charts: Click Here
VATSIM METAR: KPHL 042231Z 36012KT 10SM OVC011 12/10 A2990 RMK AO2 T01170100 $
 
         
View More: Click Here
   

 

Earn Your Wings

Interested in joining our PHL hub? Hover for more!

Your journey starts here. Your journey starts now. A whole new experience is at your fingertips.

Like what you see and ready to join the team?

A rewarding and memorable virtual airline experience awaits!